Peachtree Corners, Georgia
Current Conditions -  °F | °C
As of 10:53 AM on Wednesday 22 Oct 2014 (Local Time) from KPDK Reporting Station
Clear Clear  
Wind Chill: 57°   Ceiling: Unl
Heat Index: 57°   Visibility: 10mi
Dew Point: 38°   Wind: 8mph
Humidity: 49%   Direction: 30°NNE
Pressure: 30.12"   Gusts: NA
Location:  33.9742°N, 84.235°W
Report Text: KPDK 221453Z 03007KT 10SM CLR 14/03 A3012 RMK AO2 SLP196 T01390033 50014
Loading
Personal Weather Stations






























Interactive Weather Map
Tropical Storm Tracking
New forecast layout! Learn more

10-Day Weather Forecast

Advertisements
Track Severe Weather on mobile